Time;durP1;ratioP1;P1;durP2;ratioP2;P2;SDS_P1;SDS_P2;PMS_P1;PMS_P2;Temp;Humidity;BMP_temperature;BMP_pressure;BME280_temperature;BME280_humidity;BME280_pressure;Samples;Min_cycle;Max_cycle;Signal;HPM_P1;HPM_P2
2023/05/07 00:00:51;;;;;;;0.00;0.00;;;;;;;10.36;100.00;100176.53;6130446;23;20424;-76
2023/05/07 00:03:20;;;;;;;0.00;0.00;;;;;;;10.29;100.00;100179.53;6179304;23;20435;-76
2023/05/07 00:05:46;;;;;;;0.00;0.00;;;;;;;10.34;100.00;100191.56;6157366;23;20001;-76
2023/05/07 00:08:11;;;;;;;0.00;0.00;;;;;;;10.18;100.00;100180.59;6151001;23;20016;-75
2023/05/07 00:10:37;;;;;;;0.00;0.00;;;;;;;10.10;100.00;100184.66;6205784;23;20008;-76
2023/05/07 00:13:04;;;;;;;0.00;0.00;;;;;;;10.10;100.00;100187.41;6153665;23;20009;-76
2023/05/07 00:15:30;;;;;;;0.00;0.00;;;;;;;10.11;100.00;100190.94;6206377;23;20012;-76
2023/05/07 00:17:58;;;;;;;0.00;0.00;;;;;;;9.98;100.00;100175.06;6180190;23;20005;-77
2023/05/07 00:20:23;;;;;;;0.00;0.00;;;;;;;9.93;100.00;100171.22;6208315;23;20004;-77
2023/05/07 00:22:49;;;;;;;0.00;0.00;;;;;;;9.90;100.00;100165.44;6155096;23;20009;-77
2023/05/07 00:25:19;;;;;;;0.00;0.00;;;;;;;9.90;100.00;100171.75;6200864;23;20068;-76
2023/05/07 00:27:44;;;;;;;0.00;0.00;;;;;;;9.84;100.00;100161.06;6180617;23;20080;-78
2023/05/07 00:30:10;;;;;;;0.00;0.00;;;;;;;9.84;100.00;100175.56;6176748;23;20092;-78
2023/05/07 00:32:36;;;;;;;0.00;0.00;;;;;;;9.87;100.00;100187.84;6179563;23;20020;-76
2023/05/07 00:35:02;;;;;;;0.00;0.00;;;;;;;9.81;100.00;100189.72;6149967;23;20013;-77
2023/05/07 00:37:31;;;;;;;0.00;0.00;;;;;;;9.65;100.00;100174.38;6179143;23;20451;-77
2023/05/07 00:39:57;;;;;;;0.00;0.00;;;;;;;9.72;100.00;100186.69;6179259;23;20449;-78
2023/05/07 00:42:22;;;;;;;0.00;0.00;;;;;;;9.69;100.00;100191.88;6175081;23;20008;-77
2023/05/07 00:44:48;;;;;;;0.00;0.00;;;;;;;9.69;100.00;100194.59;6153970;23;20044;-78
2023/05/07 00:47:14;;;;;;;0.00;0.00;;;;;;;9.67;100.00;100191.31;6178582;23;20482;-77
2023/05/07 00:49:44;;;;;;;0.00;0.00;;;;;;;9.63;100.00;100192.94;6176579;23;20494;-76
2023/05/07 00:52:13;;;;;;;0.00;0.00;;;;;;;9.65;100.00;100193.47;6178661;23;20331;-78
2023/05/07 00:54:40;;;;;;;0.00;0.00;;;;;;;9.58;100.00;100191.81;6176809;23;20416;-77
2023/05/07 00:57:06;;;;;;;0.00;0.00;;;;;;;9.57;100.00;100195.63;6177718;23;20313;-76
2023/05/07 00:59:32;;;;;;;0.00;0.00;;;;;;;9.64;100.00;100194.56;6174927;23;20015;-77
2023/05/07 01:01:59;;;;;;;0.00;0.00;;;;;;;9.66;100.00;100186.94;6179279;23;20001;-78
2023/05/07 01:04:26;;;;;;;0.00;0.00;;;;;;;9.80;100.00;100199.03;6174744;23;20446;-78
2023/05/07 01:06:55;;;;;;;0.10;0.10;;;;;;;9.82;100.00;100196.03;6178318;23;20036;-77
2023/05/07 01:09:22;;;;;;;0.00;0.00;;;;;;;9.83;100.00;100198.50;6153182;23;20013;-77
2023/05/07 01:11:50;;;;;;;0.00;0.00;;;;;;;9.79;100.00;100183.72;6178731;23;20556;-77
2023/05/07 01:14:16;;;;;;;0.00;0.00;;;;;;;9.88;100.00;100205.88;6152880;23;20428;-78
2023/05/07 01:16:41;;;;;;;0.00;0.00;;;;;;;9.83;100.00;100192.19;6151029;23;20095;-77
2023/05/07 01:19:10;;;;;;;0.00;0.00;;;;;;;9.83;100.00;100193.03;6178385;23;20056;-77
2023/05/07 01:21:37;;;;;;;0.00;0.00;;;;;;;9.85;100.00;100188.13;6174421;23;20017;-78
2023/05/07 01:24:04;;;;;;;0.00;0.00;;;;;;;9.79;100.00;100186.44;6155546;23;20096;-77
2023/05/07 01:26:39;;;;;;;0.00;0.00;;;;;;;9.68;100.00;100185.59;6148349;23;20431;-77
2023/05/07 01:29:05;;;;;;;0.00;0.00;;;;;;;9.56;100.00;100188.53;6179495;23;20005;-77
2023/05/07 01:31:32;;;;;;;0.00;0.00;;;;;;;9.51;100.00;100193.97;6152376;23;20083;-76
2023/05/07 01:33:59;;;;;;;0.00;0.00;;;;;;;9.50;100.00;100205.97;6182827;23;20103;-76
2023/05/07 01:36:27;;;;;;;0.00;0.00;;;;;;;9.44;100.00;100198.84;6183576;23;20422;-76
2023/05/07 01:38:58;;;;;;;0.00;0.00;;;;;;;9.41;100.00;100196.63;6154371;23;20009;-77
2023/05/07 01:41:26;;;;;;;0.00;0.00;;;;;;;9.40;100.00;100200.44;6158627;23;20380;-77
2023/05/07 01:43:52;;;;;;;0.00;0.00;;;;;;;9.39;100.00;100204.28;6131055;23;20013;-78
2023/05/07 01:46:18;;;;;;;0.00;0.00;;;;;;;9.40;100.00;100200.44;6158691;23;20008;-76
2023/05/07 01:48:45;;;;;;;0.00;0.00;;;;;;;9.36;100.00;100188.41;6185567;23;20567;-77
2023/05/07 01:51:11;;;;;;;0.00;0.00;;;;;;;9.33;100.00;100191.66;6202181;23;20047;-77
2023/05/07 01:53:38;;;;;;;0.00;0.00;;;;;;;9.29;100.00;100187.81;6184169;23;20008;-75
2023/05/07 01:56:04;;;;;;;0.00;0.00;;;;;;;9.33;100.00;100199.84;6153480;23;20016;-76
2023/05/07 01:58:29;;;;;;;0.00;0.00;;;;;;;9.26;100.00;100203.63;6158932;23;20464;-77
2023/05/07 02:00:55;;;;;;;0.00;0.00;;;;;;;9.38;100.00;100213.53;6181450;23;20015;-78
2023/05/07 02:03:20;;;;;;;0.00;0.00;;;;;;;9.40;100.00;100216.81;6137931;23;20013;-78
2023/05/07 02:05:46;;;;;;;0.00;0.00;;;;;;;9.44;100.00;100212.47;6135576;23;20424;-76
2023/05/07 02:08:11;;;;;;;0.00;0.00;;;;;;;9.42;100.00;100209.19;6155823;23;20020;-77
2023/05/07 02:10:36;;;;;;;0.00;0.00;;;;;;;9.43;100.00;100213.56;6159224;23;20009;-77
2023/05/07 02:13:02;;;;;;;0.00;0.00;;;;;;;9.40;100.00;100211.34;6184260;23;20012;-76
2023/05/07 02:15:27;;;;;;;0.00;0.00;;;;;;;9.39;100.00;100220.66;6155177;23;20446;-77
2023/05/07 02:18:07;;;;;;;0.00;0.00;;;;;;;9.33;100.00;100216.22;6184572;23;20004;-77
2023/05/07 02:20:33;;;;;;;0.00;0.00;;;;;;;9.31;100.00;100229.31;6207046;23;20007;-76
2023/05/07 02:22:58;;;;;;;0.00;0.00;;;;;;;9.26;100.00;100233.66;6186830;23;20034;-76
2023/05/07 02:25:24;;;;;;;0.00;0.00;;;;;;;9.21;100.00;100236.34;6182652;23;20005;-78
2023/05/07 02:27:49;;;;;;;0.00;0.00;;;;;;;9.16;100.00;100239.03;6182352;23;20012;-77
2023/05/07 02:30:15;;;;;;;0.00;0.00;;;;;;;9.15;100.00;100240.09;6159532;23;20008;-77
2023/05/07 02:32:40;;;;;;;0.00;0.00;;;;;;;9.05;100.00;100232.69;6181479;23;20021;-76
2023/05/07 02:35:06;;;;;;;0.00;0.00;;;;;;;9.05;100.00;100242.75;6184916;23;20000;-77
2023/05/07 02:37:31;;;;;;;0.00;0.00;;;;;;;8.94;100.00;100230.13;6180065;23;20087;-75
2023/05/07 02:39:57;;;;;;;0.10;0.10;;;;;;;8.94;100.00;100247.31;6159844;23;20091;-77
2023/05/07 02:42:36;;;;;;;0.00;0.00;;;;;;;8.89;100.00;100239.91;6160111;23;20009;-78
2023/05/07 02:45:01;;;;;;;0.10;0.10;;;;;;;8.81;100.00;100248.56;6209130;23;20040;-77
2023/05/07 02:47:28;;;;;;;0.00;0.00;;;;;;;8.77;100.00;100252.88;6185099;23;20392;-78
2023/05/07 02:49:54;;;;;;;0.00;0.00;;;;;;;8.74;100.00;100250.66;6155313;23;20016;-78
2023/05/07 02:52:20;;;;;;;0.00;0.00;;;;;;;8.68;100.00;100246.25;6184161;23;20431;-78
2023/05/07 02:54:45;;;;;;;0.00;0.00;;;;;;;8.70;100.00;100255.00;6182395;23;20008;-78
2023/05/07 02:57:11;;;;;;;0.00;0.00;;;;;;;8.77;100.00;100262.97;6208206;23;20008;-77
2023/05/07 02:59:36;;;;;;;0.00;0.00;;;;;;;8.71;100.00;100232.09;6158280;23;20058;-77
2023/05/07 03:02:02;;;;;;;0.00;0.00;;;;;;;9.14;100.00;100267.66;6182693;23;20428;-78
2023/05/07 03:04:29;;;;;;;0.00;0.00;;;;;;;9.28;100.00;100262.59;6159229;23;20012;-78
2023/05/07 03:06:55;;;;;;;0.00;0.00;;;;;;;9.48;100.00;100279.13;6133381;23;20386;-77
2023/05/07 03:09:20;;;;;;;0.00;0.00;;;;;;;9.60;100.00;100277.00;6160498;23;20004;-76
2023/05/07 03:11:46;;;;;;;0.00;0.00;;;;;;;9.70;100.00;100270.78;6181519;23;20009;-78
2023/05/07 03:14:11;;;;;;;0.00;0.00;;;;;;;9.77;100.00;100278.75;6185829;23;20012;-77
2023/05/07 03:16:37;;;;;;;0.00;0.00;;;;;;;9.76;100.00;100282.56;6161367;23;20371;-78
2023/05/07 03:19:02;;;;;;;0.00;0.00;;;;;;;9.77;100.00;100270.56;6156935;23;20004;-76
2023/05/07 03:21:32;;;;;;;0.00;0.00;;;;;;;9.85;100.00;100283.69;6159960;23;20016;-77
2023/05/07 03:23:58;;;;;;;0.00;0.00;;;;;;;9.64;100.00;100238.25;6181908;23;20053;-77
2023/05/07 03:26:23;;;;;;;0.00;0.00;;;;;;;9.85;100.00;100280.97;6159031;23;20335;-76
2023/05/07 03:28:49;;;;;;;0.00;0.00;;;;;;;9.85;100.00;100283.69;6156860;23;20004;-77
2023/05/07 03:31:14;;;;;;;0.00;0.00;;;;;;;9.83;100.00;100291.34;6159675;23;20013;-77
2023/05/07 03:33:56;;;;;;;0.00;0.00;;;;;;;9.86;100.00;100290.00;6159850;23;20079;-77
2023/05/07 03:36:22;;;;;;;0.00;0.00;;;;;;;9.90;100.00;100296.56;6210131;23;20039;-77
2023/05/07 03:38:48;;;;;;;0.00;0.00;;;;;;;9.92;100.00;100300.69;6184624;23;20481;-77
2023/05/07 03:41:14;;;;;;;0.00;0.00;;;;;;;9.97;100.00;100302.59;6178186;23;20000;-78
2023/05/07 03:43:39;;;;;;;0.00;0.00;;;;;;;9.98;100.00;100304.25;6186678;23;20058;-78
2023/05/07 03:46:05;;;;;;;0.00;0.00;;;;;;;10.06;100.00;100311.13;6156551;23;20016;-77
2023/05/07 03:48:30;;;;;;;0.00;0.00;;;;;;;10.02;100.00;100299.91;6182848;23;20063;-76
2023/05/07 03:50:57;;;;;;;0.00;0.00;;;;;;;10.09;100.00;100313.31;6176923;23;20008;-76
2023/05/07 03:53:22;;;;;;;0.00;0.00;;;;;;;10.12;100.00;100312.81;6159987;23;20039;-78
2023/05/07 03:55:48;;;;;;;0.00;0.00;;;;;;;10.13;100.00;100311.72;6158315;23;20004;-77
2023/05/07 03:58:13;;;;;;;0.00;0.00;;;;;;;10.16;100.00;100302.16;6177869;23;20016;-77
2023/05/07 04:00:40;;;;;;;0.00;0.00;;;;;;;10.18;100.00;100298.09;6159698;23;20785;-78
2023/05/07 04:03:05;;;;;;;0.00;0.00;;;;;;;10.30;100.00;100300.59;6155268;23;20271;-76
2023/05/07 04:05:31;;;;;;;0.00;0.00;;;;;;;10.31;100.00;100302.25;6160070;23;20476;-76
2023/05/07 04:07:58;;;;;;;0.10;0.10;;;;;;;10.38;100.00;100307.47;6154669;23;20012;-76
2023/05/07 04:10:24;;;;;;;0.00;0.00;;;;;;;10.41;100.00;100305.03;6182155;23;20005;-77
2023/05/07 04:12:49;;;;;;;0.00;0.00;;;;;;;10.45;100.00;100316.25;6184924;23;20019;-77
2023/05/07 04:15:15;;;;;;;0.00;0.00;;;;;;;10.50;100.00;100321.75;6176953;23;20008;-75
2023/05/07 04:17:41;;;;;;;0.00;0.00;;;;;;;10.52;100.00;100324.22;6147257;23;20004;-76
2023/05/07 04:20:10;;;;;;;0.00;0.00;;;;;;;10.55;100.00;100313.56;6184696;23;20103;-77
2023/05/07 04:22:36;;;;;;;0.00;0.00;;;;;;;10.56;100.00;100317.94;6208789;23;20667;-77
2023/05/07 04:25:02;;;;;;;0.00;0.00;;;;;;;10.57;100.00;100316.84;6185019;23;20024;-76
2023/05/07 04:27:27;;;;;;;0.00;0.00;;;;;;;10.59;100.00;100317.41;6156609;23;20013;-76
2023/05/07 04:29:55;;;;;;;0.00;0.00;;;;;;;10.65;100.00;100319.06;6159773;23;20017;-77
2023/05/07 04:32:21;;;;;;;0.00;0.00;;;;;;;10.69;100.00;100329.44;6206514;23;20340;-76
2023/05/07 04:34:46;;;;;;;0.00;0.00;;;;;;;10.61;100.00;100317.13;6158422;23;20005;-76
2023/05/07 04:37:12;;;;;;;0.00;0.00;;;;;;;10.68;100.00;100327.81;6132403;23;20008;-76
2023/05/07 04:39:37;;;;;;;0.00;0.00;;;;;;;10.66;100.00;100325.38;6209829;23;20009;-76
2023/05/07 04:42:03;;;;;;;0.00;0.00;;;;;;;10.71;100.00;100333.56;6158268;23;20294;-77
2023/05/07 04:44:30;;;;;;;0.00;0.00;;;;;;;10.74;100.00;100333.03;6133200;23;20013;-76
2023/05/07 04:46:56;;;;;;;0.00;0.00;;;;;;;10.74;100.00;100327.56;6159277;23;20339;-77
2023/05/07 04:49:21;;;;;;;0.00;0.00;;;;;;;10.76;100.00;100330.84;6156677;23;20011;-76
2023/05/07 04:51:47;;;;;;;0.00;0.00;;;;;;;10.77;100.00;100328.94;6208122;23;20012;-77
2023/05/07 04:54:12;;;;;;;0.00;0.00;;;;;;;10.77;100.00;100334.41;6182389;23;20035;-77
2023/05/07 04:56:38;;;;;;;0.00;0.00;;;;;;;10.73;100.00;100317.72;6182366;23;20440;-77
2023/05/07 04:59:03;;;;;;;0.00;0.00;;;;;;;10.80;100.00;100336.59;6159167;23;20070;-77
2023/05/07 05:01:28;;;;;;;0.00;0.00;;;;;;;10.85;100.00;100333.03;6154657;23;20023;-78
2023/05/07 05:03:54;;;;;;;0.00;0.00;;;;;;;10.88;100.00;100322.41;6183339;23;20004;-77
2023/05/07 05:06:19;;;;;;;0.00;0.00;;;;;;;10.91;100.00;100332.81;6155016;23;20008;-77
2023/05/07 05:08:47;;;;;;;0.00;0.00;;;;;;;10.97;100.00;100347.31;6158599;23;20004;-77
2023/05/07 05:11:13;;;;;;;0.00;0.00;;;;;;;11.02;100.00;100344.56;6210133;23;20004;-76
2023/05/07 05:13:38;;;;;;;0.00;0.00;;;;;;;10.94;100.00;100335.00;6156230;23;20091;-76
2023/05/07 05:16:04;;;;;;;0.00;0.00;;;;;;;11.06;100.00;100342.13;6158765;23;20015;-77
2023/05/07 05:18:32;;;;;;;0.00;0.00;;;;;;;11.14;100.00;100358.00;6180758;23;20009;-78
2023/05/07 05:21:00;;;;;;;0.00;0.00;;;;;;;11.06;100.00;100342.13;6183742;23;20001;-77
2023/05/07 05:23:27;;;;;;;0.00;0.00;;;;;;;11.15;100.00;100359.66;6183659;23;20008;-78
2023/05/07 05:25:57;;;;;;;0.00;0.00;;;;;;;11.13;100.00;100378.28;6181934;23;20139;-77
2023/05/07 05:28:30;;;;;;;0.00;0.00;;;;;;;11.11;100.00;100377.69;6184079;23;20007;-77
2023/05/07 05:30:56;;;;;;;0.00;0.00;;;;;;;11.10;100.00;100384.28;6180374;23;20005;-77
2023/05/07 05:33:21;;;;;;;0.00;0.00;;;;;;;11.15;100.00;100385.09;6183655;23;20028;-76
2023/05/07 05:35:52;;;;;;;0.00;0.00;;;;;;;11.13;100.00;100378.28;6180580;23;21057;-76
2023/05/07 05:38:17;;;;;;;0.00;0.00;;;;;;;11.23;100.00;100383.75;6207666;23;20043;-77
2023/05/07 05:40:42;;;;;;;0.00;0.00;;;;;;;11.29;100.00;100388.16;6154897;23;20005;-77
2023/05/07 05:43:08;;;;;;;0.00;0.00;;;;;;;11.35;100.00;100387.03;6158102;23;20092;-79
2023/05/07 05:45:33;;;;;;;0.00;0.00;;;;;;;11.42;100.00;100380.47;6183047;23;20060;-78
2023/05/07 05:48:02;;;;;;;0.00;0.00;;;;;;;11.38;100.00;100384.88;6157110;23;20440;-77
2023/05/07 05:50:27;;;;;;;0.00;0.00;;;;;;;11.45;100.00;100385.44;6182850;23;20313;-77
2023/05/07 05:52:56;;;;;;;0.00;0.00;;;;;;;11.41;100.00;100374.19;6185085;23;20087;-78
2023/05/07 05:55:21;;;;;;;0.00;0.00;;;;;;;11.63;100.00;100398.56;6210737;23;20032;-78
2023/05/07 05:57:49;;;;;;;0.00;0.00;;;;;;;11.84;100.00;100404.03;6206128;23;20628;-77
2023/05/07 06:00:15;;;;;;;0.00;0.00;;;;;;;11.97;100.00;100400.78;6183858;23;20472;-76
2023/05/07 06:02:46;;;;;;;0.03;0.03;;;;;;;12.08;100.00;100398.03;6157712;23;20327;-76
2023/05/07 06:05:12;;;;;;;0.00;0.00;;;;;;;12.26;100.00;100405.66;6184352;23;20055;-78
2023/05/07 06:07:37;;;;;;;0.00;0.00;;;;;;;12.35;100.00;100398.53;6158555;23;20362;-77
2023/05/07 06:10:07;;;;;;;0.00;0.00;;;;;;;12.36;100.00;100383.69;6180311;23;20531;-76
2023/05/07 06:12:32;;;;;;;0.00;0.00;;;;;;;12.37;100.00;100385.34;6183716;23;20015;-76
2023/05/07 06:14:58;;;;;;;0.00;0.00;;;;;;;12.45;100.00;100394.09;6158955;23;20343;-76
2023/05/07 06:17:23;;;;;;;0.00;0.00;;;;;;;12.40;100.00;100395.75;6182360;23;20008;-77
2023/05/07 06:19:51;;;;;;;0.00;0.00;;;;;;;12.50;100.00;100407.78;6184783;23;20005;-76
2023/05/07 06:22:19;;;;;;;0.00;0.00;;;;;;;12.64;100.00;100410.75;6181151;23;20008;-76
2023/05/07 06:24:47;;;;;;;0.00;0.00;;;;;;;12.73;100.00;100409.91;6161144;23;20071;-74
2023/05/07 06:27:12;;;;;;;0.00;0.00;;;;;;;12.69;100.00;100408.00;6158292;23;20015;-76
2023/05/07 06:29:38;;;;;;;0.00;0.00;;;;;;;12.77;100.00;100420.31;6183515;23;20032;-77
2023/05/07 06:32:11;;;;;;;0.00;0.00;;;;;;;12.77;100.00;100431.28;6209979;23;20027;-75
2023/05/07 06:34:37;;;;;;;0.00;0.00;;;;;;;12.80;100.00;100430.72;6207629;23;20158;-76
2023/05/07 06:37:03;;;;;;;0.00;0.00;;;;;;;12.74;100.00;100441.72;6158224;23;20423;-76
2023/05/07 06:39:28;;;;;;;0.00;0.00;;;;;;;12.55;100.00;100435.19;6178964;23;20103;-74
2023/05/07 06:41:59;;;;;;;0.00;0.00;;;;;;;12.42;99.77;100431.13;6133584;23;20007;-78
2023/05/07 06:44:29;;;;;;;0.00;0.00;;;;;;;12.48;100.00;100435.50;6208619;23;20068;-77
2023/05/07 06:46:57;;;;;;;0.00;0.00;;;;;;;12.60;99.39;100435.19;6185409;23;20004;-77
2023/05/07 06:49:25;;;;;;;0.00;0.00;;;;;;;12.73;99.21;100431.84;6180441;23;20092;-77
2023/05/07 06:51:51;;;;;;;0.00;0.00;;;;;;;13.13;98.61;100444.84;6182422;23;20131;-76
2023/05/07 06:54:16;;;;;;;0.00;0.00;;;;;;;13.25;97.36;100443.41;6179626;23;20099;-76
2023/05/07 06:56:42;;;;;;;0.03;0.03;;;;;;;13.41;96.45;100441.41;6132243;23;20074;-77
2023/05/07 06:59:08;;;;;;;0.00;0.00;;;;;;;13.60;95.53;100447.06;6180342;23;20412;-78
2023/05/07 07:01:33;;;;;;;0.00;0.00;;;;;;;13.78;94.34;100451.06;6153876;23;20084;-78
2023/05/07 07:03:59;;;;;;;0.00;0.00;;;;;;;14.01;93.42;100436.84;6182508;23;20328;-76
2023/05/07 07:06:25;;;;;;;0.00;0.00;;;;;;;14.35;91.76;100447.78;6180750;23;20015;-76
2023/05/07 07:08:50;;;;;;;0.00;0.00;;;;;;;14.63;90.82;100437.88;6210702;23;20008;-76
2023/05/07 07:11:16;;;;;;;0.00;0.00;;;;;;;14.89;90.36;100450.53;6182205;23;20015;-76
2023/05/07 07:13:43;;;;;;;0.00;0.00;;;;;;;15.11;90.14;100452.72;6181368;23;20004;-75
2023/05/07 07:16:27;;;;;;;0.00;0.00;;;;;;;15.21;89.59;100429.72;6183952;23;20012;-78
2023/05/07 07:19:06;;;;;;;;;;;;;;;;;;;;;
2023/05/07 07:21:39;;;;;;;0.00;0.00;;;;;;;15.82;88.23;100450.88;6187439;23;20075;-76
2023/05/07 07:24:32;;;;;;;0.00;0.00;;;;;;;16.08;86.53;100469.75;6183967;23;20019;-76
2023/05/07 07:27:00;;;;;;;0.00;0.00;;;;;;;16.03;86.12;100462.41;6185249;23;20016;-74
2023/05/07 07:29:34;;;;;;;0.00;0.00;;;;;;;15.91;85.91;100466.72;6159173;23;20009;-76
2023/05/07 07:32:08;;;;;;;0.00;0.00;;;;;;;15.59;85.51;100463.59;6187128;23;20099;-75
2023/05/07 07:34:33;;;;;;;0.00;0.00;;;;;;;15.69;85.94;100474.47;6210178;23;20435;-76
2023/05/07 07:37:05;;;;;;;0.00;0.00;;;;;;;15.92;85.47;100471.13;6184672;23;20004;-73
2023/05/07 07:39:40;;;;;;;0.00;0.00;;;;;;;16.34;84.89;100488.59;6206971;23;19992;-74
2023/05/07 07:42:06;;;;;;;0.00;0.00;;;;;;;16.35;82.76;100476.47;6183300;23;20011;-76
2023/05/07 07:44:31;;;;;;;0.00;0.00;;;;;;;16.44;81.88;100505.00;6182868;23;20005;-75
2023/05/07 07:47:20;;;;;;;0.00;0.00;;;;;;;16.39;80.63;100492.09;6184167;23;20012;-75
2023/05/07 07:49:43;;;;;;;0.00;0.00;;;;;;;16.41;79.97;100489.03;6206892;23;20062;-74
2023/05/07 07:52:11;;;;;;;0.00;0.00;;;;;;;16.57;79.39;100508.91;6185532;23;20016;-75
2023/05/07 07:54:39;;;;;;;0.00;0.00;;;;;;;16.50;78.70;100487.22;6185259;23;20300;-76
2023/05/07 07:57:07;;;;;;;0.00;0.00;;;;;;;16.59;78.43;100487.34;6185797;23;20020;-76
2023/05/07 07:59:42;;;;;;;0.00;0.00;;;;;;;16.77;78.01;100509.66;6206652;23;20004;-75
2023/05/07 08:02:08;;;;;;;0.00;0.00;;;;;;;17.00;77.65;100499.56;6206450;23;20005;-76
2023/05/07 08:04:34;;;;;;;0.00;0.00;;;;;;;17.46;77.09;100501.31;6179254;23;20058;-75
2023/05/07 08:06:59;;;;;;;0.00;0.00;;;;;;;17.96;76.38;100506.84;6155979;23;20710;-77
2023/05/07 08:09:25;;;;;;;0.00;0.00;;;;;;;18.26;75.24;100507.19;6208261;23;20004;-76
2023/05/07 08:11:50;;;;;;;0.00;0.00;;;;;;;18.54;74.51;100518.09;6178237;23;20012;-75
2023/05/07 08:14:16;;;;;;;0.00;0.00;;;;;;;18.58;74.29;100516.34;6183136;23;20092;-76
2023/05/07 08:16:41;;;;;;;0.00;0.00;;;;;;;18.52;74.67;100514.84;6182320;23;20027;-77
2023/05/07 08:19:07;;;;;;;0.00;0.00;;;;;;;18.47;74.50;100518.56;6129652;23;20296;-75
2023/05/07 08:21:32;;;;;;;0.00;0.00;;;;;;;18.36;72.92;100521.94;6155831;23;20058;-74
2023/05/07 08:24:00;;;;;;;0.00;0.00;;;;;;;18.35;72.04;100528.59;6205335;23;20004;-76
2023/05/07 08:26:25;;;;;;;0.00;0.00;;;;;;;18.20;71.25;100530.59;6205679;23;20442;-77
2023/05/07 08:28:51;;;;;;;0.00;0.00;;;;;;;18.11;71.24;100522.25;6128981;23;20005;-75
2023/05/07 08:31:16;;;;;;;0.00;0.00;;;;;;;18.09;69.68;100531.97;6181513;23;20012;-77
2023/05/07 08:33:42;;;;;;;0.00;0.00;;;;;;;17.78;68.84;100540.97;6156753;23;20032;-76
2023/05/07 08:36:07;;;;;;;0.00;0.00;;;;;;;17.87;69.70;100522.53;6154704;23;20020;-75
2023/05/07 08:38:33;;;;;;;0.00;0.00;;;;;;;18.10;68.93;100525.31;6181339;23;20019;-76
2023/05/07 08:40:58;;;;;;;0.00;0.00;;;;;;;18.25;68.77;100526.88;6204824;23;20423;-76
2023/05/07 08:43:27;;;;;;;0.00;0.00;;;;;;;18.36;67.64;100530.22;6207553;23;20031;-76
2023/05/07 08:46:04;;;;;;;0.00;0.00;;;;;;;18.37;67.79;100527.16;6204458;23;20487;-77
2023/05/07 08:48:32;;;;;;;0.00;0.00;;;;;;;18.82;67.87;100529.81;6209841;23;20007;-76
2023/05/07 08:50:58;;;;;;;0.00;0.00;;;;;;;19.31;67.12;100529.84;6176315;23;20087;-76
2023/05/07 08:53:24;;;;;;;0.00;0.00;;;;;;;19.50;65.21;100548.16;6182682;23;20454;-77
2023/05/07 08:55:53;;;;;;;0.00;0.00;;;;;;;19.58;64.31;100533.50;6207926;23;20005;-76
2023/05/07 08:58:18;;;;;;;0.00;0.00;;;;;;;19.94;63.89;100537.13;6181577;23;20087;-76
2023/05/07 09:00:44;;;;;;;0.00;0.00;;;;;;;20.53;63.92;100542.94;6208085;23;20076;-77
2023/05/07 09:03:12;;;;;;;0.00;0.00;;;;;;;20.90;62.06;100536.97;6179568;23;20494;-77
2023/05/07 09:05:38;;;;;;;0.00;0.00;;;;;;;20.83;58.82;100553.34;6154801;23;20009;-76
2023/05/07 09:08:06;;;;;;;0.00;0.00;;;;;;;20.45;59.25;100549.31;6177258;23;20005;-77
2023/05/07 09:10:34;;;;;;;0.00;0.00;;;;;;;20.43;60.20;100539.69;6180986;23;20007;-77
2023/05/07 09:13:00;;;;;;;0.00;0.00;;;;;;;20.34;61.01;100534.97;6180934;23;20032;-78
2023/05/07 09:15:26;;;;;;;0.00;0.00;;;;;;;20.18;60.69;100533.84;6203573;23;20379;-75
2023/05/07 09:17:52;;;;;;;0.00;0.00;;;;;;;20.08;60.23;100532.22;6180140;23;20014;-78
2023/05/07 09:20:18;;;;;;;0.00;0.00;;;;;;;20.34;60.86;100554.41;6179828;23;20370;-77
2023/05/07 09:22:44;;;;;;;0.00;0.00;;;;;;;20.26;59.58;100563.56;6207464;23;20667;-77
2023/05/07 09:25:10;;;;;;;0.00;0.00;;;;;;;19.88;60.12;100553.13;6182174;23;20013;-79
2023/05/07 09:27:38;;;;;;;0.00;0.00;;;;;;;19.61;60.02;100560.59;6202822;23;20008;-77
2023/05/07 09:30:06;;;;;;;0.00;0.00;;;;;;;19.63;60.08;100577.72;6181519;23;20063;-77
2023/05/07 09:32:35;;;;;;;0.00;0.00;;;;;;;19.71;60.43;100571.38;6176888;23;20017;-77
2023/05/07 09:35:02;;;;;;;0.00;0.00;;;;;;;19.63;61.23;100574.94;6204745;23;20031;-80
2023/05/07 09:37:35;;;;;;;0.00;0.00;;;;;;;19.59;61.75;100573.94;6178637;23;20032;-77
2023/05/07 09:40:01;;;;;;;0.00;0.00;;;;;;;19.73;62.16;100589.63;6207251;23;20442;-78
2023/05/07 09:42:27;;;;;;;0.00;0.00;;;;;;;19.81;61.87;100566.66;6178624;23;20056;-79
2023/05/07 09:44:53;;;;;;;0.00;0.00;;;;;;;20.28;60.37;100572.41;6207138;23;20051;-77
2023/05/07 09:47:20;;;;;;;0.00;0.00;;;;;;;20.56;58.18;100588.69;6181984;23;20032;-77
2023/05/07 09:49:47;;;;;;;0.00;0.00;;;;;;;20.85;57.75;100589.94;6178155;23;20343;-77
2023/05/07 09:52:13;;;;;;;0.00;0.00;;;;;;;21.22;56.91;100590.31;6206221;23;20005;-77
2023/05/07 09:54:42;;;;;;;0.00;0.00;;;;;;;21.39;57.05;100587.44;6180444;23;20011;-77
2023/05/07 09:57:10;;;;;;;0.00;0.00;;;;;;;21.48;57.82;100589.34;6182188;23;20009;-77
2023/05/07 09:59:41;;;;;;;0.00;0.00;;;;;;;21.36;56.91;100579.75;6179602;23;20478;-77
2023/05/07 10:02:10;;;;;;;0.00;0.00;;;;;;;21.56;56.96;100582.94;6205650;23;20103;-78
2023/05/07 10:04:40;;;;;;;0.00;0.00;;;;;;;21.78;56.95;100582.63;6205666;23;20004;-77
2023/05/07 10:07:14;;;;;;;0.00;0.00;;;;;;;21.83;55.52;100611.41;6181691;23;20331;-77
2023/05/07 10:09:43;;;;;;;0.00;0.00;;;;;;;21.57;55.37;100601.28;6208271;23;20001;-77
2023/05/07 10:12:09;;;;;;;0.00;0.00;;;;;;;21.26;55.00;100603.19;6178801;23;20079;-80
2023/05/07 10:14:35;;;;;;;0.00;0.00;;;;;;;20.96;56.16;100601.53;6205858;23;20032;-75
2023/05/07 10:17:02;;;;;;;0.00;0.00;;;;;;;20.84;56.15;100593.88;6182139;23;20416;-78
2023/05/07 10:19:49;;;;;;;0.00;0.00;;;;;;;20.95;56.02;100600.69;6155710;23;20450;-80
2023/05/07 10:22:17;;;;;;;0.00;0.00;;;;;;;21.64;55.50;100609.91;6213253;23;20008;-78
2023/05/07 10:24:44;;;;;;;0.00;0.00;;;;;;;24.27;53.17;100579.84;6183342;23;20020;-80
2023/05/07 10:27:15;;;;;;;0.00;0.00;;;;;;;25.38;46.59;100603.59;6183088;23;20098;-78
2023/05/07 10:30:08;;;;;;;0.00;0.00;;;;;;;27.34;44.90;100616.41;6182267;23;20335;-78
2023/05/07 10:32:39;;;;;;;0.00;0.00;;;;;;;27.47;39.87;100593.75;6183565;23;20024;-79
2023/05/07 10:35:40;;;;;;;0.00;0.00;;;;;;;28.59;37.92;100592.41;6206434;23;20004;-78
2023/05/07 10:38:05;;;;;;;0.00;0.00;;;;;;;27.14;38.53;100612.03;6204084;23;20019;-80
2023/05/07 10:40:31;;;;;;;0.00;0.00;;;;;;;26.03;40.54;100591.88;6182478;23;20331;-80
2023/05/07 10:43:02;;;;;;;0.00;0.00;;;;;;;27.52;39.58;100610.25;6185750;23;20328;-79
2023/05/07 10:45:28;;;;;;;0.00;0.00;;;;;;;28.21;38.20;100606.41;6183542;23;20008;-81
2023/05/07 10:48:14;;;;;;;0.00;0.00;;;;;;;28.25;38.19;100628.97;6186115;23;20012;-79
2023/05/07 10:50:41;;;;;;;0.00;0.00;;;;;;;28.63;37.78;100610.94;6181230;23;20008;-78
2023/05/07 10:53:16;;;;;;;0.00;0.00;;;;;;;28.36;37.56;100622.28;6185870;23;20115;-78
2023/05/07 10:55:42;;;;;;;0.00;0.00;;;;;;;27.78;38.08;100628.31;6180923;23;20196;-79
2023/05/07 10:58:31;;;;;;;0.00;0.00;;;;;;;26.82;38.90;100640.31;6210612;23;20000;-78
2023/05/07 11:00:58;;;;;;;0.00;0.00;;;;;;;27.30;39.34;100617.50;6183876;23;20054;-81
2023/05/07 11:03:25;;;;;;;0.00;0.00;;;;;;;29.04;36.26;100619.41;6211234;23;20073;-80
2023/05/07 11:06:16;;;;;;;0.00;0.00;;;;;;;31.92;32.90;100642.25;6184436;23;20005;-80
2023/05/07 11:08:58;;;;;;;0.00;0.00;;;;;;;31.09;32.47;100635.81;6178171;23;20071;-83
2023/05/07 11:11:52;;;;;;;0.00;0.00;;;;;;;31.52;33.17;100637.84;6186163;23;20313;-80
2023/05/07 11:14:42;;;;;;;0.00;0.00;;;;;;;34.77;25.75;100639.94;6212465;23;20015;-82
2023/05/07 11:17:15;;;;;;;0.00;0.00;;;;;;;37.84;22.44;100620.16;6210232;23;20005;-80
2023/05/07 11:19:57;;;;;;;0.00;0.00;;;;;;;39.73;20.20;100620.28;6185250;23;20016;-80
2023/05/07 11:22:32;;;;;;;0.00;0.00;;;;;;;41.30;18.65;100634.66;6181630;23;20009;-81
2023/05/07 11:25:02;;;;;;;0.00;0.00;;;;;;;42.53;17.05;100629.97;6185137;23;20095;-79
2023/05/07 11:27:29;;;;;;;0.00;0.00;;;;;;;43.35;16.01;100629.25;6181359;23;20004;-78